createdAt,value
2023-06-04T00:01:29.728Z,54.39
2023-06-04T00:03:56.153Z,54.64
2023-06-04T00:06:22.611Z,54.40
2023-06-04T00:08:48.941Z,54.15
2023-06-04T00:11:15.891Z,53.70
2023-06-04T00:13:42.278Z,54.10
2023-06-04T00:16:08.704Z,53.52
2023-06-04T00:18:35.091Z,54.12
2023-06-04T00:21:01.457Z,54.25
2023-06-04T00:23:27.824Z,54.63
2023-06-04T00:25:54.202Z,54.48
2023-06-04T00:28:20.548Z,54.04
2023-06-04T00:30:46.890Z,54.29
2023-06-04T00:33:13.289Z,54.46
2023-06-04T00:35:39.700Z,55.20
2023-06-04T00:38:06.218Z,54.79
2023-06-04T00:40:32.600Z,54.29
2023-06-04T00:42:59.029Z,53.13
2023-06-04T00:45:26.921Z,53.31
2023-06-04T00:47:53.983Z,53.44
2023-06-04T00:50:21.927Z,54.12
2023-06-04T00:52:48.835Z,53.99
2023-06-04T00:55:15.569Z,54.36
2023-06-04T00:57:41.907Z,54.53
2023-06-04T01:00:08.571Z,54.58
2023-06-04T01:02:34.975Z,54.49
2023-06-04T01:05:09.474Z,55.20
2023-06-04T01:07:36.163Z,55.44
2023-06-04T01:10:02.532Z,55.42
2023-06-04T01:12:28.868Z,55.52
2023-06-04T01:14:55.277Z,54.27
2023-06-04T01:17:21.703Z,53.67
2023-06-04T01:20:06.829Z,53.16
2023-06-04T01:22:33.591Z,52.63
2023-06-04T01:25:02.344Z,53.05
2023-06-04T01:27:28.677Z,52.66
2023-06-04T01:29:57.826Z,53.03
2023-06-04T01:32:24.673Z,53.46
2023-06-04T01:34:51.103Z,53.23
2023-06-04T01:37:17.947Z,53.75
2023-06-04T01:39:44.294Z,53.88
2023-06-04T01:42:10.879Z,54.28
2023-06-04T01:44:37.532Z,54.11
2023-06-04T01:47:03.896Z,53.60
2023-06-04T01:49:30.351Z,53.13
2023-06-04T01:51:57.461Z,53.78
2023-06-04T01:54:23.825Z,52.56
2023-06-04T01:56:50.182Z,52.13
2023-06-04T01:59:17.353Z,51.55
2023-06-04T02:01:43.786Z,51.68
2023-06-04T02:04:10.340Z,52.52
2023-06-04T02:06:38.309Z,53.00
2023-06-04T02:09:04.729Z,52.41
2023-06-04T02:11:31.162Z,53.00
2023-06-04T02:13:57.556Z,52.94
2023-06-04T02:16:23.965Z,53.16
2023-06-04T02:18:50.550Z,53.06
2023-06-04T02:21:17.023Z,52.75
2023-06-04T02:23:43.433Z,51.77
2023-06-04T02:26:09.819Z,52.11
2023-06-04T02:28:36.155Z,52.33
2023-06-04T02:31:02.496Z,53.16
2023-06-04T02:33:28.829Z,52.82
2023-06-04T02:35:55.174Z,52.98
2023-06-04T02:38:21.503Z,52.68
2023-06-04T02:40:47.835Z,53.27
2023-06-04T02:43:14.154Z,53.64
2023-06-04T02:45:40.619Z,53.97
2023-06-04T02:48:07.060Z,54.33
2023-06-04T02:50:33.653Z,54.29
2023-06-04T02:52:59.960Z,54.74
2023-06-04T02:55:26.290Z,54.32
2023-06-04T02:57:53.043Z,53.58
2023-06-04T03:00:19.394Z,53.53
2023-06-04T03:02:46.514Z,53.39
2023-06-04T03:05:13.694Z,54.33
2023-06-04T03:07:41.879Z,53.86
2023-06-04T03:10:08.726Z,53.88
2023-06-04T03:12:35.080Z,54.07
2023-06-04T03:15:01.445Z,54.09
2023-06-04T03:17:27.882Z,53.04
2023-06-04T03:19:54.309Z,52.10
2023-06-04T03:22:20.652Z,52.29
2023-06-04T03:24:46.989Z,52.17
2023-06-04T03:27:13.345Z,52.05
2023-06-04T03:29:39.704Z,51.82
2023-06-04T03:32:06.308Z,51.86
2023-06-04T03:34:35.344Z,51.98
2023-06-04T03:37:02.193Z,52.30
2023-06-04T03:39:28.827Z,52.89
2023-06-04T03:41:56.217Z,53.31
2023-06-04T03:44:22.571Z,52.92
2023-06-04T03:46:48.972Z,53.17
2023-06-04T03:49:15.707Z,53.61
2023-06-04T03:51:42.160Z,53.31
2023-06-04T03:54:08.531Z,53.00
2023-06-04T03:56:34.884Z,53.09
2023-06-04T03:59:01.765Z,53.12
2023-06-04T04:01:29.327Z,53.16
2023-06-04T04:03:55.946Z,53.39
2023-06-04T04:06:22.428Z,53.32
2023-06-04T04:08:49.507Z,53.46
2023-06-04T04:11:16.166Z,53.26
2023-06-04T04:13:42.487Z,53.54
2023-06-04T04:16:08.819Z,54.25
2023-06-04T04:18:35.816Z,54.03
2023-06-04T04:21:02.155Z,53.71
2023-06-04T04:23:29.049Z,53.31
2023-06-04T04:25:57.400Z,52.89
2023-06-04T04:28:23.740Z,53.30
2023-06-04T04:30:50.769Z,53.36
2023-06-04T04:33:17.931Z,53.68
2023-06-04T04:35:45.499Z,54.02
2023-06-04T04:38:11.938Z,53.78
2023-06-04T04:40:38.267Z,53.67
2023-06-04T04:43:04.937Z,53.73
2023-06-04T04:45:31.535Z,53.29
2023-06-04T04:47:57.939Z,53.37
2023-06-04T04:50:24.315Z,53.68
2023-06-04T04:52:50.761Z,53.69
2023-06-04T04:55:17.103Z,53.94
2023-06-04T04:57:43.480Z,53.11
2023-06-04T05:00:10.852Z,52.46
2023-06-04T05:02:37.392Z,52.85
2023-06-04T05:05:04.330Z,52.96
2023-06-04T05:07:30.990Z,52.26
2023-06-04T05:09:57.681Z,53.17
2023-06-04T05:12:25.866Z,52.80
2023-06-04T05:14:52.201Z,53.31
2023-06-04T05:17:22.682Z,54.08
2023-06-04T05:19:49.073Z,54.10
2023-06-04T05:22:19.546Z,51.36
2023-06-04T05:24:45.875Z,51.20
2023-06-04T05:27:12.366Z,51.53
2023-06-04T05:29:38.732Z,51.89
2023-06-04T05:32:05.661Z,52.23
2023-06-04T05:34:33.619Z,52.20
2023-06-04T05:36:59.964Z,52.29
2023-06-04T05:39:26.359Z,52.29
2023-06-04T05:41:52.750Z,52.08
2023-06-04T05:44:19.213Z,52.11
2023-06-04T05:46:45.664Z,51.95
2023-06-04T05:49:12.012Z,51.69
2023-06-04T05:51:38.378Z,51.53
2023-06-04T05:54:04.705Z,51.29
2023-06-04T05:56:31.236Z,51.34
2023-06-04T05:58:57.574Z,50.93
2023-06-04T06:01:24.460Z,50.86
2023-06-04T06:03:51.039Z,50.59
2023-06-04T06:06:17.442Z,50.16
2023-06-04T06:08:44.429Z,50.81
2023-06-04T06:11:11.560Z,50.75
2023-06-04T06:13:38.173Z,50.17
2023-06-04T06:16:05.676Z,50.47
2023-06-04T06:18:32.068Z,50.85
2023-06-04T06:20:58.432Z,50.12
2023-06-04T06:23:25.264Z,49.86
2023-06-04T06:25:52.925Z,50.26
2023-06-04T06:28:19.526Z,50.14
2023-06-04T06:30:46.176Z,51.63
2023-06-04T06:33:12.955Z,51.59
2023-06-04T06:35:39.314Z,51.30
2023-06-04T06:38:05.726Z,51.80
2023-06-04T06:40:32.059Z,52.83
2023-06-04T06:42:58.492Z,52.03
2023-06-04T06:45:24.886Z,52.76
2023-06-04T06:47:51.281Z,51.74
2023-06-04T06:50:17.628Z,53.12
2023-06-04T06:52:44.073Z,51.78
2023-06-04T06:55:10.402Z,51.65
2023-06-04T06:57:36.749Z,51.88
2023-06-04T07:00:03.557Z,52.86
2023-06-04T07:02:30.250Z,53.05
2023-06-04T07:04:56.836Z,52.38
2023-06-04T07:07:23.159Z,52.02
2023-06-04T07:09:49.469Z,51.69
2023-06-04T07:12:15.983Z,51.24
2023-06-04T07:14:43.029Z,50.30
2023-06-04T07:17:09.381Z,51.26
2023-06-04T07:19:35.863Z,51.09
2023-06-04T07:22:02.188Z,51.17
2023-06-04T07:24:28.514Z,51.30
2023-06-04T07:26:54.867Z,52.41
2023-06-04T07:29:21.282Z,51.97
2023-06-04T07:31:47.706Z,50.97
2023-06-04T07:34:14.056Z,52.03
2023-06-04T07:36:40.470Z,51.63
2023-06-04T07:39:06.797Z,52.09
2023-06-04T07:41:33.257Z,51.48
2023-06-04T07:43:59.589Z,53.49
2023-06-04T07:46:26.200Z,53.23
2023-06-04T07:48:52.584Z,51.88
2023-06-04T07:51:20.645Z,51.73
2023-06-04T07:53:47.041Z,52.25
2023-06-04T07:56:13.394Z,52.88
2023-06-04T07:58:39.754Z,52.13
2023-06-04T08:01:06.732Z,51.34
2023-06-04T08:03:33.509Z,50.79
2023-06-04T08:06:01.079Z,50.44
2023-06-04T08:08:29.229Z,51.38
2023-06-04T08:10:55.558Z,50.26
2023-06-04T08:13:21.908Z,49.60
2023-06-04T08:15:48.890Z,50.27
2023-06-04T08:18:15.531Z,50.17
2023-06-04T08:20:41.873Z,48.49
2023-06-04T08:23:08.339Z,49.55
2023-06-04T08:25:34.724Z,50.76
2023-06-04T08:28:01.058Z,49.48
2023-06-04T08:30:28.535Z,47.16
2023-06-04T08:32:54.973Z,46.88
2023-06-04T08:35:22.026Z,47.28
2023-06-04T08:37:48.426Z,48.07
2023-06-04T08:40:14.761Z,47.78
2023-06-04T08:42:42.336Z,48.96
2023-06-04T08:45:13.270Z,50.76
2023-06-04T08:47:41.873Z,49.81
2023-06-04T08:50:08.434Z,51.50
2023-06-04T08:52:34.753Z,50.82
2023-06-04T08:55:01.504Z,50.26
2023-06-04T08:57:27.872Z,49.88
2023-06-04T08:59:54.298Z,50.68
2023-06-04T09:02:21.193Z,49.43
2023-06-04T09:04:47.677Z,49.33
2023-06-04T09:07:14.345Z,49.58
2023-06-04T09:09:41.002Z,48.74
2023-06-04T09:12:11.774Z,49.84
2023-06-04T09:14:38.100Z,50.45
2023-06-04T09:17:04.530Z,48.96
2023-06-04T09:19:30.951Z,48.95
2023-06-04T09:21:57.847Z,47.96
2023-06-04T09:24:24.961Z,46.88
2023-06-04T09:26:51.568Z,48.65
2023-06-04T09:29:17.953Z,46.40
2023-06-04T09:31:48.466Z,45.67
2023-06-04T09:34:15.975Z,46.17
2023-06-04T09:36:42.341Z,46.78
2023-06-04T09:39:18.033Z,47.29
2023-06-04T09:41:44.523Z,46.91
2023-06-04T09:44:12.942Z,47.57
2023-06-04T09:46:39.330Z,47.25
2023-06-04T09:49:06.046Z,48.69
2023-06-04T09:51:32.598Z,48.58
2023-06-04T09:53:59.516Z,49.21
2023-06-04T09:56:27.549Z,48.06
2023-06-04T09:58:58.279Z,48.71
2023-06-04T10:01:25.620Z,47.78
2023-06-04T10:03:52.472Z,48.24
2023-06-04T10:06:19.473Z,47.95
2023-06-04T10:08:46.327Z,46.17
2023-06-04T10:11:13.059Z,47.16
2023-06-04T10:13:45.937Z,48.17
2023-06-04T10:16:21.237Z,47.50
2023-06-04T10:18:56.086Z,47.11
2023-06-04T10:21:22.696Z,46.56
2023-06-04T10:23:50.274Z,48.29
2023-06-04T10:26:16.779Z,47.61
2023-06-04T10:28:43.477Z,47.58
2023-06-04T10:31:10.405Z,46.76
2023-06-04T10:33:36.838Z,46.99
2023-06-04T10:36:16.628Z,46.29
2023-06-04T10:38:49.519Z,46.09
2023-06-04T10:41:17.382Z,47.48
2023-06-04T10:43:47.104Z,48.25
2023-06-04T10:46:14.773Z,48.02
2023-06-04T10:48:46.960Z,46.83
2023-06-04T10:51:13.292Z,43.53
2023-06-04T10:53:39.654Z,46.29
2023-06-04T10:56:06.412Z,45.44
2023-06-04T10:58:33.449Z,45.65
2023-06-04T11:00:59.807Z,45.16
2023-06-04T11:03:35.159Z,44.74
2023-06-04T11:06:01.526Z,46.62
2023-06-04T11:08:31.078Z,45.68
2023-06-04T11:10:57.557Z,44.37
2023-06-04T11:13:25.633Z,44.62
2023-06-04T11:15:52.155Z,44.18
2023-06-04T11:18:19.571Z,43.72
2023-06-04T11:20:46.228Z,44.22
2023-06-04T11:23:12.845Z,44.00
2023-06-04T11:25:39.203Z,43.38
2023-06-04T11:28:05.636Z,43.08
2023-06-04T11:30:31.974Z,42.86
2023-06-04T11:33:02.389Z,43.82
2023-06-04T11:35:28.800Z,44.34
2023-06-04T11:37:55.870Z,44.81
2023-06-04T11:40:22.249Z,44.79
2023-06-04T11:42:48.942Z,44.33
2023-06-04T11:45:15.965Z,44.42
2023-06-04T11:47:45.385Z,43.83
2023-06-04T11:50:12.032Z,44.72
2023-06-04T11:52:38.366Z,43.60
2023-06-04T11:55:06.170Z,45.15
2023-06-04T11:57:32.543Z,45.41
2023-06-04T11:59:59.095Z,45.95
2023-06-04T12:02:25.964Z,44.68
2023-06-04T12:04:52.373Z,44.72
2023-06-04T12:07:25.325Z,44.12
2023-06-04T12:09:51.768Z,44.97
2023-06-04T12:12:22.455Z,43.19
2023-06-04T12:14:48.861Z,43.23
2023-06-04T12:17:15.352Z,40.59
2023-06-04T12:19:49.363Z,40.98
2023-06-04T12:22:15.717Z,41.83
2023-06-04T12:24:49.675Z,42.63
2023-06-04T12:27:16.180Z,41.41
2023-06-04T12:29:42.518Z,40.56
2023-06-04T12:32:11.941Z,40.77
2023-06-04T12:34:39.210Z,39.40
2023-06-04T12:37:07.176Z,40.25
2023-06-04T12:39:34.138Z,36.87
2023-06-04T12:42:00.594Z,38.77
2023-06-04T12:44:26.929Z,37.70
2023-06-04T12:46:53.259Z,38.64
2023-06-04T12:49:19.632Z,36.62
2023-06-04T12:51:45.971Z,38.80
2023-06-04T12:54:12.296Z,38.33
2023-06-04T12:56:38.647Z,38.78
2023-06-04T12:59:04.996Z,39.42
2023-06-04T13:01:31.773Z,39.52
2023-06-04T13:03:58.316Z,38.98
2023-06-04T13:06:24.843Z,38.70
2023-06-04T13:08:52.031Z,39.31
2023-06-04T13:11:18.610Z,38.26
2023-06-04T13:13:44.936Z,39.39
2023-06-04T13:16:11.336Z,39.61
2023-06-04T13:18:37.696Z,40.25
2023-06-04T13:21:04.045Z,40.05
2023-06-04T13:23:45.335Z,40.86
2023-06-04T13:26:15.849Z,39.50
2023-06-04T13:28:42.187Z,38.81
2023-06-04T13:31:08.749Z,38.78
2023-06-04T13:33:35.409Z,39.60
2023-06-04T13:36:03.347Z,38.46
2023-06-04T13:38:29.655Z,38.21
2023-06-04T13:40:56.071Z,38.10
2023-06-04T13:43:22.414Z,37.35
2023-06-04T13:45:48.785Z,38.66
2023-06-04T13:48:15.649Z,38.89
2023-06-04T13:50:42.186Z,38.43
2023-06-04T13:53:11.777Z,39.36
2023-06-04T13:55:38.097Z,38.58
2023-06-04T13:58:04.551Z,38.53
2023-06-04T14:00:31.614Z,38.11
2023-06-04T14:02:58.127Z,37.70
2023-06-04T14:05:25.892Z,38.09
2023-06-04T14:07:52.253Z,37.71
2023-06-04T14:10:18.569Z,37.72
2023-06-04T14:12:47.619Z,36.49
2023-06-04T14:15:13.993Z,36.44
2023-06-04T14:17:40.484Z,36.30
2023-06-04T14:20:08.351Z,36.76
2023-06-04T14:22:37.877Z,36.31
2023-06-04T14:25:04.690Z,37.83
2023-06-04T14:27:31.309Z,38.22
2023-06-04T14:29:57.936Z,40.43
2023-06-04T14:32:24.489Z,41.60
2023-06-04T14:34:50.856Z,41.20
2023-06-04T14:37:17.178Z,40.60
2023-06-04T14:39:43.521Z,37.79
2023-06-04T14:42:09.865Z,37.06
2023-06-04T14:44:36.213Z,37.86
2023-06-04T14:47:02.587Z,35.68
2023-06-04T14:49:28.901Z,36.17
2023-06-04T14:51:55.336Z,35.74
2023-06-04T14:54:21.691Z,34.62
2023-06-04T14:56:48.225Z,33.86
2023-06-04T14:59:14.571Z,37.28
2023-06-04T15:01:42.091Z,34.29
2023-06-04T15:04:08.718Z,32.46
2023-06-04T15:06:35.494Z,34.24
2023-06-04T15:09:01.840Z,34.38
2023-06-04T15:11:28.157Z,33.81
2023-06-04T15:13:54.747Z,33.77
2023-06-04T15:16:21.644Z,34.97
2023-06-04T15:18:48.396Z,34.66
2023-06-04T15:21:14.828Z,34.99
2023-06-04T15:23:41.421Z,35.92
2023-06-04T15:26:07.789Z,38.25
2023-06-04T15:28:34.124Z,37.42
2023-06-04T15:31:00.542Z,38.15
2023-06-04T15:33:26.897Z,39.94
2023-06-04T15:35:53.960Z,39.83
2023-06-04T15:38:20.342Z,39.44
2023-06-04T15:40:46.666Z,39.87
2023-06-04T15:43:12.977Z,39.84
2023-06-04T15:45:39.386Z,41.36
2023-06-04T15:48:06.028Z,41.18
2023-06-04T15:50:32.373Z,41.43
2023-06-04T15:52:58.687Z,41.27
2023-06-04T15:55:25.104Z,40.69
2023-06-04T15:57:51.467Z,40.38
2023-06-04T16:00:17.820Z,42.37
2023-06-04T16:02:44.258Z,42.79
2023-06-04T16:05:10.734Z,43.42
2023-06-04T16:07:37.073Z,42.75
2023-06-04T16:10:03.450Z,43.84
2023-06-04T16:12:29.775Z,44.13
2023-06-04T16:14:56.164Z,43.78
2023-06-04T16:17:22.658Z,45.50
2023-06-04T16:19:49.154Z,45.77
2023-06-04T16:22:16.707Z,46.59
2023-06-04T16:24:43.355Z,47.30
2023-06-04T16:27:09.700Z,48.52
2023-06-04T16:29:36.057Z,48.14
2023-06-04T16:32:02.428Z,48.73
2023-06-04T16:34:28.757Z,47.19
2023-06-04T16:36:55.092Z,47.56
2023-06-04T16:39:21.448Z,47.14
2023-06-04T16:41:47.961Z,47.05
2023-06-04T16:44:14.283Z,46.40
2023-06-04T16:46:40.721Z,46.77
2023-06-04T16:49:07.085Z,47.56
2023-06-04T16:51:33.413Z,47.33
2023-06-04T16:53:59.781Z,47.24
2023-06-04T16:56:26.184Z,47.86
2023-06-04T16:58:52.544Z,47.71
2023-06-04T17:01:19.140Z,47.89
2023-06-04T17:03:45.644Z,48.21
2023-06-04T17:06:12.015Z,48.02
2023-06-04T17:08:38.372Z,47.87
2023-06-04T17:11:04.719Z,47.79
2023-06-04T17:13:31.488Z,45.39
2023-06-04T17:15:57.861Z,46.75
2023-06-04T17:18:24.221Z,47.37
2023-06-04T17:20:50.726Z,46.55
2023-06-04T17:23:23.501Z,46.17
2023-06-04T17:25:49.903Z,45.83
2023-06-04T17:28:16.327Z,44.09
2023-06-04T17:30:42.757Z,46.28
2023-06-04T17:33:09.337Z,46.27
2023-06-04T17:35:35.751Z,47.82
2023-06-04T17:38:02.089Z,47.52
2023-06-04T17:40:28.472Z,46.67
2023-06-04T17:42:54.787Z,46.25
2023-06-04T17:45:21.117Z,45.95
2023-06-04T17:47:47.777Z,45.58
2023-06-04T17:50:14.202Z,44.62
2023-06-04T17:52:40.694Z,45.42
2023-06-04T17:55:07.147Z,45.69
2023-06-04T17:57:33.562Z,46.85
2023-06-04T17:59:59.871Z,46.50
2023-06-04T18:02:26.456Z,46.32
2023-06-04T18:04:52.901Z,45.55
2023-06-04T18:07:19.541Z,46.30
2023-06-04T18:09:45.895Z,47.18
2023-06-04T18:12:12.284Z,47.22
2023-06-04T18:14:38.890Z,46.99
2023-06-04T18:17:05.249Z,47.91
2023-06-04T18:19:31.659Z,47.66
2023-06-04T18:21:58.438Z,45.78
2023-06-04T18:24:24.841Z,46.91
2023-06-04T18:26:51.214Z,47.19
2023-06-04T18:29:17.542Z,46.88
2023-06-04T18:31:43.930Z,47.55
2023-06-04T18:34:12.628Z,47.17
2023-06-04T18:36:38.967Z,47.70
2023-06-04T18:39:05.373Z,46.52
2023-06-04T18:41:31.692Z,47.52
2023-06-04T18:43:58.041Z,47.66
2023-06-04T18:46:24.696Z,47.98
2023-06-04T18:48:51.111Z,46.40
2023-06-04T18:51:17.463Z,48.54
2023-06-04T18:53:43.798Z,48.65
2023-06-04T18:56:10.286Z,48.48
2023-06-04T18:58:36.706Z,48.45
2023-06-04T19:01:03.173Z,47.57
2023-06-04T19:03:29.555Z,47.70
2023-06-04T19:05:56.056Z,48.05
2023-06-04T19:08:22.400Z,49.22
2023-06-04T19:10:52.414Z,48.93
2023-06-04T19:13:19.091Z,48.41
2023-06-04T19:15:45.468Z,47.67
2023-06-04T19:18:11.918Z,48.01
2023-06-04T19:20:40.045Z,47.98
2023-06-04T19:23:06.531Z,48.00
2023-06-04T19:25:33.178Z,48.06
2023-06-04T19:27:59.522Z,48.29
2023-06-04T19:30:26.026Z,48.49
2023-06-04T19:32:52.581Z,47.92
2023-06-04T19:35:18.996Z,48.18
2023-06-04T19:37:45.436Z,47.87
2023-06-04T19:40:11.963Z,47.66
2023-06-04T19:42:38.313Z,48.45
2023-06-04T19:45:04.879Z,49.27
2023-06-04T19:47:31.462Z,49.04
2023-06-04T19:49:57.879Z,49.42
2023-06-04T19:52:25.789Z,49.55
2023-06-04T19:54:52.234Z,48.85
2023-06-04T19:57:18.565Z,48.64
2023-06-04T19:59:44.927Z,48.02
2023-06-04T20:02:11.282Z,47.75
2023-06-04T20:04:37.725Z,47.80
2023-06-04T20:07:04.054Z,47.47
2023-06-04T20:09:30.815Z,47.69
2023-06-04T20:11:57.153Z,47.95
2023-06-04T20:14:23.809Z,47.09
2023-06-04T20:16:50.421Z,47.04
2023-06-04T20:19:16.961Z,47.34
2023-06-04T20:21:43.297Z,47.22
2023-06-04T20:24:09.861Z,46.84
2023-06-04T20:26:36.458Z,46.95
2023-06-04T20:29:02.806Z,47.25
2023-06-04T20:31:29.210Z,46.07
2023-06-04T20:33:56.826Z,46.85
2023-06-04T20:36:23.682Z,47.05
2023-06-04T20:38:51.152Z,47.70
2023-06-04T20:41:17.911Z,47.23
2023-06-04T20:43:50.429Z,46.98
2023-06-04T20:46:16.867Z,47.43
2023-06-04T20:48:43.243Z,47.73
2023-06-04T20:51:09.911Z,47.64
2023-06-04T20:53:36.248Z,46.83
2023-06-04T20:56:02.645Z,47.25
2023-06-04T20:58:29.035Z,47.52
2023-06-04T21:00:55.676Z,47.16
2023-06-04T21:03:22.281Z,47.08
2023-06-04T21:05:48.659Z,48.17
2023-06-04T21:08:15.015Z,48.76
2023-06-04T21:10:41.352Z,47.97
2023-06-04T21:13:07.700Z,48.17
2023-06-04T21:15:34.054Z,47.67
2023-06-04T21:18:00.503Z,47.37
2023-06-04T21:20:26.892Z,47.81
2023-06-04T21:22:53.238Z,47.67
2023-06-04T21:25:19.598Z,47.95
2023-06-04T21:27:48.127Z,47.95
2023-06-04T21:30:15.933Z,48.10
2023-06-04T21:32:43.688Z,47.56
2023-06-04T21:35:10.528Z,47.95
2023-06-04T21:37:36.870Z,47.45
2023-06-04T21:40:03.246Z,47.59
2023-06-04T21:42:29.651Z,47.62
2023-06-04T21:44:56.415Z,47.40
2023-06-04T21:47:23.224Z,47.22
2023-06-04T21:49:49.577Z,47.26
2023-06-04T21:52:25.393Z,46.66
2023-06-04T21:54:52.193Z,47.00
2023-06-04T21:57:18.693Z,47.06
2023-06-04T21:59:45.008Z,47.19
2023-06-04T22:02:11.415Z,47.56
2023-06-04T22:04:37.811Z,47.04
2023-06-04T22:07:04.666Z,47.60
2023-06-04T22:09:31.222Z,47.91
2023-06-04T22:11:57.605Z,48.04
2023-06-04T22:14:23.937Z,48.12
2023-06-04T22:16:50.537Z,48.32
2023-06-04T22:19:16.888Z,48.21
2023-06-04T22:21:43.242Z,48.21
2023-06-04T22:24:09.692Z,47.90
2023-06-04T22:26:37.891Z,47.52
2023-06-04T22:29:04.727Z,47.98
2023-06-04T22:31:31.352Z,48.29
2023-06-04T22:33:57.774Z,47.82
2023-06-04T22:36:24.112Z,48.00
2023-06-04T22:38:50.453Z,47.50
2023-06-04T22:41:16.786Z,47.56
2023-06-04T22:43:43.113Z,47.45
2023-06-04T22:46:09.463Z,47.60
2023-06-04T22:48:35.893Z,49.01
2023-06-04T22:51:02.792Z,47.83
2023-06-04T22:53:29.815Z,47.97
2023-06-04T22:55:56.382Z,47.93
2023-06-04T22:58:22.776Z,48.22
2023-06-04T23:00:50.320Z,48.54
2023-06-04T23:03:17.060Z,49.12
2023-06-04T23:05:43.521Z,48.01
2023-06-04T23:08:09.865Z,48.64
2023-06-04T23:10:36.195Z,48.51
2023-06-04T23:13:02.553Z,48.69
2023-06-04T23:15:28.897Z,48.28
2023-06-04T23:17:55.274Z,48.69
2023-06-04T23:20:21.693Z,49.47
2023-06-04T23:22:48.046Z,49.73
2023-06-04T23:25:14.461Z,49.93
2023-06-04T23:27:40.868Z,48.79
2023-06-04T23:30:07.492Z,48.63
2023-06-04T23:32:33.912Z,48.81
2023-06-04T23:35:00.291Z,48.58
2023-06-04T23:37:26.635Z,48.60
2023-06-04T23:39:53.117Z,49.34
2023-06-04T23:42:19.463Z,48.53
2023-06-04T23:44:46.131Z,48.96
2023-06-04T23:47:12.444Z,48.83
2023-06-04T23:49:38.836Z,48.90
2023-06-04T23:52:05.514Z,48.57
2023-06-04T23:54:32.045Z,48.31
2023-06-04T23:56:58.398Z,48.34
2023-06-04T23:59:24.732Z,48.27
